Time;durP1;ratioP1;P1;durP2;ratioP2;P2;SDS_P1;SDS_P2;PMS_P1;PMS_P2;Temp;Humidity;BMP_temperature;BMP_pressure;BME280_temperature;BME280_humidity;BME280_pressure;Samples;Min_cycle;Max_cycle;Signal;HPM_P1;HPM_P2
2022/11/10 00:00:52;;;;;;;3.22;0.93;;;;;;;;;;4992026;28;20038;-82
2022/11/10 00:03:17;;;;;;;6.47;1.25;;;;;;;;;;4985196;28;20069;-82
2022/11/10 00:05:43;;;;;;;3.58;1.00;;;;;;;;;;4978667;28;20047;-81
2022/11/10 00:08:10;;;;;;;3.08;1.00;;;;;;;;;;4966965;28;20039;-81
2022/11/10 00:10:56;;;;;;;2.83;0.95;;;;;;;;;;4961126;28;20060;-81
2022/11/10 00:13:34;;;;;;;2.63;0.85;;;;;;;;;;4976792;28;20536;-81
2022/11/10 00:18:48;;;;;;;2.13;0.90;;;;;;;;;;4987998;28;20077;-82
2022/11/10 00:21:15;;;;;;;2.97;1.27;;;;;;;;;;4963381;28;20506;-82
2022/11/10 00:23:41;;;;;;;3.43;1.00;;;;;;;;;;4961783;28;20038;-81
2022/11/10 00:26:20;;;;;;;3.40;1.30;;;;;;;;;;4965445;28;20038;-81
2022/11/10 00:28:45;;;;;;;3.85;0.90;;;;;;;;;;4976286;28;20039;-81
2022/11/10 00:31:11;;;;;;;2.80;1.08;;;;;;;;;;4962519;28;20602;-81
2022/11/10 00:33:38;;;;;;;1.88;1.00;;;;;;;;;;4973409;28;20057;-81
2022/11/10 00:36:04;;;;;;;3.58;0.95;;;;;;;;;;4989861;28;20049;-81
2022/11/10 00:38:30;;;;;;;3.15;1.10;;;;;;;;;;4967557;28;20117;-79
2022/11/10 00:40:57;;;;;;;4.43;1.10;;;;;;;;;;4977137;28;20573;-82
2022/11/10 00:43:23;;;;;;;2.80;0.98;;;;;;;;;;4981876;28;20108;-80
2022/11/10 00:45:48;;;;;;;2.40;0.88;;;;;;;;;;4955963;28;20062;-80
2022/11/10 00:48:13;;;;;;;3.92;0.90;;;;;;;;;;4960241;28;20129;-81
2022/11/10 00:50:39;;;;;;;4.05;1.00;;;;;;;;;;4966038;28;20041;-81
2022/11/10 00:53:04;;;;;;;3.45;0.95;;;;;;;;;;4980420;28;20042;-80
2022/11/10 00:55:32;;;;;;;3.35;1.08;;;;;;;;;;4980745;28;20035;-80
2022/11/10 00:57:57;;;;;;;;;;;;;;;;;;4975746;28;20034;-81
2022/11/10 01:00:23;;;;;;;4.45;0.80;;;;;;;;;;4988632;28;19917;-81
2022/11/10 01:02:48;;;;;;;4.63;1.25;;;;;;;;;;4972215;28;20047;-81
2022/11/10 01:05:13;;;;;;;2.50;0.82;;;;;;;;;;4981874;28;20061;-80
2022/11/10 01:07:39;;;;;;;4.57;1.02;;;;;;;;;;4982349;28;20039;-81
2022/11/10 01:10:05;;;;;;;3.47;0.80;;;;;;;;;;4975912;28;20864;-81
2022/11/10 01:12:31;;;;;;;3.13;0.88;;;;;;;;;;4960348;28;20043;-80
2022/11/10 01:14:56;;;;;;;2.38;1.00;;;;;;;;;;4990853;28;20054;-81
2022/11/10 01:17:21;;;;;;;2.50;0.90;;;;;;;;;;4963629;28;20046;-81
2022/11/10 01:19:47;;;;;;;3.20;1.10;;;;;;;;;;4967722;28;20116;-79
2022/11/10 01:22:12;;;;;;;4.45;0.82;;;;;;;;;;4967200;28;20043;-81
2022/11/10 01:24:38;;;;;;;4.07;0.90;;;;;;;;;;4975342;28;20034;-80
2022/11/10 01:27:03;;;;;;;2.28;0.75;;;;;;;;;;4981130;28;20039;-81
2022/11/10 01:29:29;;;;;;;3.20;0.85;;;;;;;;;;4966085;28;20049;-80
2022/11/10 01:31:54;;;;;;;4.88;1.10;;;;;;;;;;4986777;28;20039;-80
2022/11/10 01:34:19;;;;;;;3.92;1.00;;;;;;;;;;4964860;28;20031;-80
2022/11/10 01:36:45;;;;;;;2.60;0.90;;;;;;;;;;4965234;28;20042;-80
2022/11/10 01:39:10;;;;;;;3.67;1.02;;;;;;;;;;4990010;28;20038;-80
2022/11/10 01:41:36;;;;;;;2.25;0.77;;;;;;;;;;4978796;28;20550;-80
2022/11/10 01:44:19;;;;;;;4.30;0.90;;;;;;;;;;4966823;28;20078;-80
2022/11/10 01:46:44;;;;;;;1.90;0.80;;;;;;;;;;4964572;28;20039;-81
2022/11/10 01:49:14;;;;;;;2.50;0.90;;;;;;;;;;4983074;28;20041;-80
2022/11/10 01:52:06;;;;;;;1.95;0.80;;;;;;;;;;4965063;28;20073;-80
2022/11/10 01:54:34;;;;;;;5.68;1.00;;;;;;;;;;4958575;28;20430;-80
2022/11/10 01:57:04;;;;;;;2.63;1.00;;;;;;;;;;4955214;28;20042;-80
2022/11/10 01:59:32;;;;;;;5.43;0.90;;;;;;;;;;4965291;28;20043;-81
2022/11/10 02:02:05;;;;;;;2.33;0.90;;;;;;;;;;4958624;28;20047;-80
2022/11/10 02:04:32;;;;;;;2.90;0.90;;;;;;;;;;4971060;28;20042;-80
2022/11/10 02:06:57;;;;;;;2.55;0.80;;;;;;;;;;4959267;28;20053;-80
2022/11/10 02:09:23;;;;;;;3.22;0.98;;;;;;;;;;4959474;28;20389;-82
2022/11/10 02:11:50;;;;;;;4.15;1.00;;;;;;;;;;4960335;28;20034;-81
2022/11/10 02:14:16;;;;;;;2.22;0.90;;;;;;;;;;4992180;28;20078;-80
2022/11/10 02:16:42;;;;;;;4.10;0.90;;;;;;;;;;4979347;28;20070;-80
2022/11/10 02:19:17;;;;;;;2.70;0.80;;;;;;;;;;4984833;28;20039;-80
2022/11/10 02:21:43;;;;;;;3.85;0.90;;;;;;;;;;4975250;28;20046;-80
2022/11/10 02:24:08;;;;;;;2.35;1.00;;;;;;;;;;4991107;28;20050;-80
2022/11/10 02:26:35;;;;;;;4.07;1.08;;;;;;;;;;4986976;28;20064;-81
2022/11/10 02:29:01;;;;;;;5.05;0.98;;;;;;;;;;4962520;28;20506;-81
2022/11/10 02:31:26;;;;;;;2.78;0.82;;;;;;;;;;4964001;28;20031;-81
2022/11/10 02:33:51;;;;;;;3.42;1.10;;;;;;;;;;4976477;28;20066;-82
2022/11/10 02:36:17;;;;;;;4.75;1.13;;;;;;;;;;4962356;28;20398;-80
2022/11/10 02:38:42;;;;;;;2.78;0.98;;;;;;;;;;4985681;28;20039;-81
2022/11/10 02:41:09;;;;;;;4.18;1.00;;;;;;;;;;4992284;28;20038;-80
2022/11/10 02:43:34;;;;;;;2.22;0.80;;;;;;;;;;4962068;28;20062;-80
2022/11/10 02:46:00;;;;;;;4.22;1.13;;;;;;;;;;4968253;28;20061;-80
2022/11/10 02:48:25;;;;;;;3.65;1.00;;;;;;;;;;4961504;28;20045;-81
2022/11/10 02:50:50;;;;;;;4.22;1.00;;;;;;;;;;4963626;28;20039;-82
2022/11/10 02:53:19;;;;;;;6.38;1.40;;;;;;;;;;4967832;28;20035;-81
2022/11/10 02:55:44;;;;;;;2.25;0.90;;;;;;;;;;4962874;28;20042;-80
2022/11/10 02:58:10;;;;;;;5.20;1.10;;;;;;;;;;4963130;28;20066;-80
2022/11/10 03:00:35;;;;;;;2.40;1.05;;;;;;;;;;4971790;28;20391;-81
2022/11/10 03:03:02;;;;;;;4.50;1.25;;;;;;;;;;4968222;28;20401;-80
2022/11/10 03:05:28;;;;;;;3.22;1.08;;;;;;;;;;4963222;28;20046;-81
2022/11/10 03:07:55;;;;;;;3.13;0.90;;;;;;;;;;4983337;28;20049;-81
2022/11/10 03:10:21;;;;;;;2.60;0.93;;;;;;;;;;4983592;28;20572;-81
2022/11/10 03:12:47;;;;;;;4.78;0.95;;;;;;;;;;4995282;28;20101;-82
2022/11/10 03:15:13;;;;;;;3.50;1.00;;;;;;;;;;4962466;28;20380;-79
2022/11/10 03:17:38;;;;;;;2.53;0.90;;;;;;;;;;4982751;28;20807;-81
2022/11/10 03:20:04;;;;;;;4.35;1.42;;;;;;;;;;4981513;28;20137;-81
2022/11/10 03:22:29;;;;;;;3.38;0.90;;;;;;;;;;4957239;28;20113;-81
2022/11/10 03:24:55;;;;;;;3.75;1.40;;;;;;;;;;4983622;28;20042;-81
2022/11/10 03:27:20;;;;;;;2.35;1.00;;;;;;;;;;4959188;28;20850;-81
2022/11/10 03:29:46;;;;;;;2.35;0.98;;;;;;;;;;4983146;28;20049;-81
2022/11/10 03:32:11;;;;;;;4.22;1.17;;;;;;;;;;4982882;28;20108;-80
2022/11/10 03:34:36;;;;;;;4.18;1.05;;;;;;;;;;4977042;28;20069;-81
2022/11/10 03:37:02;;;;;;;4.82;1.00;;;;;;;;;;4959577;28;20041;-80
2022/11/10 03:39:27;;;;;;;4.00;1.10;;;;;;;;;;4965690;28;20074;-80
2022/11/10 03:41:55;;;;;;;5.82;1.17;;;;;;;;;;4962054;28;20828;-82
2022/11/10 03:44:21;;;;;;;3.58;0.80;;;;;;;;;;4959094;28;20035;-81
2022/11/10 03:46:46;;;;;;;3.05;1.00;;;;;;;;;;4967582;28;20573;-82
2022/11/10 03:49:12;;;;;;;3.20;1.10;;;;;;;;;;4976822;28;20043;-80
2022/11/10 03:51:37;;;;;;;8.85;1.30;;;;;;;;;;4991881;28;20050;-81
2022/11/10 03:54:02;;;;;;;2.22;1.10;;;;;;;;;;4973027;28;20039;-80
2022/11/10 03:56:28;;;;;;;4.07;1.02;;;;;;;;;;4972599;28;20039;-80
2022/11/10 03:58:53;;;;;;;4.28;1.15;;;;;;;;;;4963574;28;20078;-80
2022/11/10 04:01:19;;;;;;;4.22;1.10;;;;;;;;;;4982517;28;20450;-80
2022/11/10 04:03:44;;;;;;;4.57;1.15;;;;;;;;;;4973494;28;20042;-80
2022/11/10 04:08:59;;;;;;;5.03;1.60;;;;;;;;;;4976522;28;20049;-80
2022/11/10 04:16:55;;;;;;;3.35;1.27;;;;;;;;;;4973725;28;20523;-81
2022/11/10 04:19:20;;;;;;;4.03;1.10;;;;;;;;;;4974771;28;20121;-80
2022/11/10 04:21:46;;;;;;;3.22;1.13;;;;;;;;;;4965230;28;20046;-80
2022/11/10 04:24:11;;;;;;;3.38;1.20;;;;;;;;;;4964620;28;20035;-81
2022/11/10 04:26:37;;;;;;;3.10;1.15;;;;;;;;;;4961121;28;20046;-81
2022/11/10 04:29:05;;;;;;;4.63;1.10;;;;;;;;;;4959790;28;20598;-80
2022/11/10 04:31:32;;;;;;;4.70;1.10;;;;;;;;;;4974522;28;20077;-81
2022/11/10 04:34:01;;;;;;;3.05;1.17;;;;;;;;;;4965271;28;20117;-83
2022/11/10 04:36:28;;;;;;;3.83;1.30;;;;;;;;;;4990837;28;20042;-81
2022/11/10 04:38:54;;;;;;;5.05;1.38;;;;;;;;;;4982165;28;20046;-80
2022/11/10 04:41:20;;;;;;;5.50;1.40;;;;;;;;;;4965258;28;20039;-81
2022/11/10 04:43:45;;;;;;;5.40;1.00;;;;;;;;;;4957802;28;20494;-80
2022/11/10 04:46:23;;;;;;;3.70;1.42;;;;;;;;;;4988877;28;20411;-80
2022/11/10 04:48:49;;;;;;;3.50;1.27;;;;;;;;;;4959845;28;20047;-81
2022/11/10 04:51:15;;;;;;;4.00;1.40;;;;;;;;;;4981723;28;20041;-78
2022/11/10 04:53:41;;;;;;;3.53;1.20;;;;;;;;;;4963646;28;20076;-81
2022/11/10 04:56:07;;;;;;;5.70;1.45;;;;;;;;;;4962187;28;20042;-81
2022/11/10 04:58:33;;;;;;;3.03;1.13;;;;;;;;;;4966332;28;20037;-80
2022/11/10 05:00:58;;;;;;;4.65;1.20;;;;;;;;;;4977703;28;20038;-80
2022/11/10 05:03:25;;;;;;;5.07;1.42;;;;;;;;;;4979622;28;20502;-79
2022/11/10 05:05:51;;;;;;;3.93;1.43;;;;;;;;;;4975617;28;20526;-79
2022/11/10 05:08:16;;;;;;;6.07;1.98;;;;;;;;;;4972967;28;20053;-79
2022/11/10 05:10:42;;;;;;;3.30;1.10;;;;;;;;;;4990438;28;20065;-79
2022/11/10 05:13:07;;;;;;;3.50;1.30;;;;;;;;;;4959941;28;20494;-79
2022/11/10 05:15:33;;;;;;;4.65;1.67;;;;;;;;;;4964320;28;21440;-78
2022/11/10 05:17:59;;;;;;;4.70;1.20;;;;;;;;;;4958207;28;20042;-79
2022/11/10 05:20:25;;;;;;;6.10;1.25;;;;;;;;;;4974429;28;20126;-85
2022/11/10 05:25:37;;;;;;;3.53;1.38;;;;;;;;;;4987613;28;20041;-83
2022/11/10 05:28:03;;;;;;;4.30;1.50;;;;;;;;;;4981383;28;20038;-82
2022/11/10 05:30:29;;;;;;;4.15;1.40;;;;;;;;;;4990266;28;20035;-82
2022/11/10 05:32:56;;;;;;;3.75;1.45;;;;;;;;;;4964567;28;20052;-82
2022/11/10 05:35:22;;;;;;;4.88;1.13;;;;;;;;;;4974254;28;20093;-82
2022/11/10 05:37:47;;;;;;;4.00;1.77;;;;;;;;;;4977204;28;20046;-82
2022/11/10 05:40:13;;;;;;;4.68;1.40;;;;;;;;;;4981858;28;20038;-82
2022/11/10 05:42:44;;;;;;;4.18;1.33;;;;;;;;;;4959786;28;20835;-79
2022/11/10 05:45:09;;;;;;;4.20;1.42;;;;;;;;;;4987581;28;20046;-78
2022/11/10 05:47:36;;;;;;;5.72;1.33;;;;;;;;;;4987515;28;20035;-78
2022/11/10 05:50:01;;;;;;;4.70;1.60;;;;;;;;;;4981734;28;20510;-79
2022/11/10 05:52:27;;;;;;;4.30;1.60;;;;;;;;;;4968387;28;20060;-79
2022/11/10 05:54:54;;;;;;;6.40;1.70;;;;;;;;;;4983259;28;20533;-78
2022/11/10 05:57:19;;;;;;;4.53;1.52;;;;;;;;;;4977689;28;20046;-81
2022/11/10 05:59:45;;;;;;;4.25;1.55;;;;;;;;;;4977709;28;20043;-79
2022/11/10 06:02:30;;;;;;;4.57;1.50;;;;;;;;;;4983653;28;20395;-79
2022/11/10 06:04:56;;;;;;;6.40;1.50;;;;;;;;;;4910861;29;20508;-80
2022/11/10 06:07:21;;;;;;;5.43;1.70;;;;;;;;;;4903812;28;20048;-79
2022/11/10 06:09:47;;;;;;;4.28;1.60;;;;;;;;;;4898653;29;20527;-79
2022/11/10 06:12:14;;;;;;;5.70;1.83;;;;;;;;;;4913194;28;20059;-79
2022/11/10 06:14:40;;;;;;;4.07;1.55;;;;;;;;;;4891841;29;20552;-80
2022/11/10 06:17:05;;;;;;;4.13;1.50;;;;;;;;;;4915046;29;20039;-79
2022/11/10 06:19:31;;;;;;;5.15;1.67;;;;;;;;;;4891281;28;20043;-79
2022/11/10 06:21:56;;;;;;;3.97;1.60;;;;;;;;;;4890602;29;20044;-79
2022/11/10 06:24:22;;;;;;;5.57;1.73;;;;;;;;;;4910417;28;20036;-79
2022/11/10 06:26:47;;;;;;;5.63;1.55;;;;;;;;;;4885274;29;20511;-79
2022/11/10 06:29:12;;;;;;;4.65;1.80;;;;;;;;;;4890884;29;20081;-79
2022/11/10 06:31:38;;;;;;;4.45;1.58;;;;;;;;;;4894680;28;20080;-79
2022/11/10 06:34:06;;;;;;;5.70;1.92;;;;;;;;;;4904660;29;20675;-79
2022/11/10 06:36:31;;;;;;;4.10;1.90;;;;;;;;;;4892299;28;20853;-78
2022/11/10 06:38:59;;;;;;;5.10;1.75;;;;;;;;;;4926162;28;20044;-79
2022/11/10 06:41:25;;;;;;;4.28;1.60;;;;;;;;;;4908166;28;20403;-82
2022/11/10 06:43:50;;;;;;;4.25;1.95;;;;;;;;;;4960748;28;20046;-78
2022/11/10 06:46:15;;;;;;;5.10;1.77;;;;;;;;;;4966441;28;20041;-79
2022/11/10 06:48:41;;;;;;;4.57;1.48;;;;;;;;;;4975436;28;20042;-81
2022/11/10 06:51:06;;;;;;;4.68;1.77;;;;;;;;;;4959235;28;20042;-78
2022/11/10 06:53:32;;;;;;;3.90;2.30;;;;;;;;;;4991044;28;20038;-80
2022/11/10 06:55:57;;;;;;;5.50;1.98;;;;;;;;;;4989025;28;20133;-80
2022/11/10 06:58:22;;;;;;;6.05;2.00;;;;;;;;;;4990229;28;20035;-80
2022/11/10 07:00:48;;;;;;;5.22;2.28;;;;;;;;;;4966399;28;20122;-79
2022/11/10 07:03:14;;;;;;;6.95;2.50;;;;;;;;;;4971359;28;20042;-79
2022/11/10 07:05:40;;;;;;;5.75;2.08;;;;;;;;;;4951251;28;20104;-79
2022/11/10 07:08:15;;;;;;;5.70;2.05;;;;;;;;;;4973324;28;20506;-79
2022/11/10 07:10:41;;;;;;;6.25;2.13;;;;;;;;;;4962429;28;20390;-80
2022/11/10 07:13:08;;;;;;;4.03;1.60;;;;;;;;;;4957400;28;20113;-79
2022/11/10 07:15:34;;;;;;;5.67;2.00;;;;;;;;;;4973820;28;20037;-79
2022/11/10 07:18:01;;;;;;;7.35;2.00;;;;;;;;;;4972690;28;20038;-80
2022/11/10 07:20:27;;;;;;;6.05;1.95;;;;;;;;;;4963588;28;20033;-81
2022/11/10 07:22:59;;;;;;;3.20;1.50;;;;;;;;;;4977846;28;20356;-79
2022/11/10 07:25:25;;;;;;;4.95;1.75;;;;;;;;;;4991778;28;20465;-82
2022/11/10 07:27:58;;;;;;;6.32;2.17;;;;;;;;;;4984376;28;20066;-79
2022/11/10 07:30:24;;;;;;;4.80;1.95;;;;;;;;;;4990467;28;20450;-81
2022/11/10 07:33:12;;;;;;;4.50;1.67;;;;;;;;;;4976645;28;20129;-80
2022/11/10 07:35:37;;;;;;;4.13;1.48;;;;;;;;;;4973618;28;20461;-80
2022/11/10 07:38:05;;;;;;;3.85;1.58;;;;;;;;;;4959943;28;20043;-80
2022/11/10 07:40:31;;;;;;;7.50;1.88;;;;;;;;;;4977220;28;20513;-80
2022/11/10 07:42:56;;;;;;;6.78;1.52;;;;;;;;;;4961394;28;20098;-80
2022/11/10 07:45:22;;;;;;;5.63;2.17;;;;;;;;;;4960439;28;20536;-82
2022/11/10 07:47:47;;;;;;;6.00;1.90;;;;;;;;;;4965583;28;20035;-79
2022/11/10 07:50:13;;;;;;;5.88;2.08;;;;;;;;;;4936141;28;20042;-79
2022/11/10 07:52:38;;;;;;;5.85;1.70;;;;;;;;;;4974538;28;20041;-79
2022/11/10 07:55:05;;;;;;;5.93;2.00;;;;;;;;;;4976718;28;20057;-80
2022/11/10 07:57:31;;;;;;;7.97;2.30;;;;;;;;;;4963790;28;20026;-80
2022/11/10 07:59:57;;;;;;;4.55;1.70;;;;;;;;;;4959098;28;20035;-81
2022/11/10 08:02:22;;;;;;;5.30;1.75;;;;;;;;;;4964891;28;20820;-79
2022/11/10 08:04:47;;;;;;;4.82;1.60;;;;;;;;;;4965528;28;20760;-81
2022/11/10 08:07:13;;;;;;;5.85;1.80;;;;;;;;;;4976423;28;20038;-81
2022/11/10 08:09:38;;;;;;;3.60;1.50;;;;;;;;;;4983270;28;20508;-80
2022/11/10 08:12:04;;;;;;;5.88;1.63;;;;;;;;;;4985355;28;20177;-80
2022/11/10 08:14:35;;;;;;;7.70;2.20;;;;;;;;;;4991932;28;20042;-81
2022/11/10 08:17:00;;;;;;;6.70;2.03;;;;;;;;;;4977030;28;20027;-81
2022/11/10 08:19:26;;;;;;;6.47;2.15;;;;;;;;;;4974720;28;20520;-82
2022/11/10 08:21:51;;;;;;;6.25;1.55;;;;;;;;;;4968836;28;20034;-81
2022/11/10 08:24:17;;;;;;;4.88;1.33;;;;;;;;;;4978144;28;20044;-81
2022/11/10 08:26:42;;;;;;;4.43;1.55;;;;;;;;;;4968389;28;20041;-81
2022/11/10 08:29:07;;;;;;;5.60;1.95;;;;;;;;;;4966982;28;20112;-79
2022/11/10 08:31:33;;;;;;;3.67;1.30;;;;;;;;;;4984803;28;20501;-81
2022/11/10 08:33:58;;;;;;;5.43;1.77;;;;;;;;;;4979411;28;20053;-82
2022/11/10 08:36:24;;;;;;;5.20;1.42;;;;;;;;;;4961907;28;20026;-81
2022/11/10 08:38:49;;;;;;;5.97;1.50;;;;;;;;;;4947644;28;20042;-80
2022/11/10 08:41:15;;;;;;;6.40;1.60;;;;;;;;;;4971393;28;20469;-81
2022/11/10 08:43:40;;;;;;;6.65;1.88;;;;;;;;;;4970033;28;20042;-80
2022/11/10 08:46:06;;;;;;;5.82;1.50;;;;;;;;;;4975474;28;20061;-80
2022/11/10 08:48:31;;;;;;;6.75;1.60;;;;;;;;;;4958654;28;20057;-80
2022/11/10 08:50:59;;;;;;;4.70;1.30;;;;;;;;;;4970748;28;20125;-80
2022/11/10 08:53:24;;;;;;;5.80;1.75;;;;;;;;;;4989169;28;20110;-81
2022/11/10 08:55:50;;;;;;;8.18;1.80;;;;;;;;;;4983032;28;20097;-80
2022/11/10 08:58:20;;;;;;;6.20;1.80;;;;;;;;;;4964663;28;20064;-81
2022/11/10 09:00:45;;;;;;;5.65;1.60;;;;;;;;;;4978015;28;20044;-81
2022/11/10 09:03:19;;;;;;;6.22;1.85;;;;;;;;;;4993536;28;20394;-82
2022/11/10 09:05:45;;;;;;;6.00;1.60;;;;;;;;;;4977522;28;20038;-81
2022/11/10 09:08:11;;;;;;;3.95;1.65;;;;;;;;;;4982515;28;20470;-80
2022/11/10 09:10:39;;;;;;;6.72;1.50;;;;;;;;;;4969848;28;20063;-80
2022/11/10 09:13:05;;;;;;;6.53;1.77;;;;;;;;;;4978537;28;20034;-80
2022/11/10 09:15:31;;;;;;;5.82;1.98;;;;;;;;;;4986224;28;20095;-81
2022/11/10 09:17:58;;;;;;;5.07;1.85;;;;;;;;;;4966421;28;20034;-81
2022/11/10 09:20:24;;;;;;;5.10;1.80;;;;;;;;;;4965023;28;20111;-81
2022/11/10 09:22:50;;;;;;;6.32;1.88;;;;;;;;;;4989879;28;20456;-80
2022/11/10 09:25:15;;;;;;;7.13;2.25;;;;;;;;;;4966863;28;20038;-82
2022/11/10 09:27:41;;;;;;;4.88;1.63;;;;;;;;;;4983033;28;20393;-80
2022/11/10 09:30:07;;;;;;;6.38;1.90;;;;;;;;;;4967973;28;20058;-81
2022/11/10 09:32:33;;;;;;;4.57;1.58;;;;;;;;;;4980514;28;20039;-85
2022/11/10 09:34:59;;;;;;;7.28;1.60;;;;;;;;;;4986531;28;20050;-81
2022/11/10 09:37:25;;;;;;;6.40;1.85;;;;;;;;;;4968546;28;20128;-81
2022/11/10 09:39:50;;;;;;;5.68;1.73;;;;;;;;;;4999135;28;20114;-81
2022/11/10 09:42:30;;;;;;;5.20;1.77;;;;;;;;;;4988734;28;20053;-81
2022/11/10 09:45:03;;;;;;;6.75;1.88;;;;;;;;;;4970979;28;20049;-81
2022/11/10 09:47:45;;;;;;;7.82;1.55;;;;;;;;;;4967426;28;20038;-81
2022/11/10 09:50:18;;;;;;;5.18;1.85;;;;;;;;;;4972795;28;20038;-81
2022/11/10 09:53:04;;;;;;;6.55;1.85;;;;;;;;;;4978067;28;20918;-80
2022/11/10 09:55:40;;;;;;;3.92;1.63;;;;;;;;;;4900863;29;20508;-81
2022/11/10 09:58:09;;;;;;;6.53;1.70;;;;;;;;;;4892533;29;20032;-80
2022/11/10 10:00:35;;;;;;;9.63;2.15;;;;;;;;;;4886220;29;20509;-81
2022/11/10 10:03:02;;;;;;;5.03;1.75;;;;;;;;;;4885597;29;20060;-80
2022/11/10 10:05:51;;;;;;;4.85;1.85;;;;;;;;;;4887768;29;20187;-84
2022/11/10 10:08:32;;;;;;;5.55;2.10;;;;;;;;;;4894522;29;20036;-81
2022/11/10 10:11:28;;;;;;;5.13;1.80;;;;;;;;;;4921618;29;20075;-79
2022/11/10 10:14:24;;;;;;;5.93;1.90;;;;;;;;;;4918899;29;20830;-79
2022/11/10 10:16:52;;;;;;;5.57;1.90;;;;;;;;;;4918624;29;20751;-79
2022/11/10 10:19:41;;;;;;;4.82;1.55;;;;;;;;;;4911466;29;20047;-80
2022/11/10 10:22:06;;;;;;;4.80;1.90;;;;;;;;;;4901117;29;20071;-79
2022/11/10 10:24:33;;;;;;;6.57;2.20;;;;;;;;;;4911446;29;20118;-81
2022/11/10 10:27:01;;;;;;;6.40;1.80;;;;;;;;;;4909709;29;20059;-79
2022/11/10 10:29:30;;;;;;;5.75;2.00;;;;;;;;;;4921710;29;20047;-81
2022/11/10 10:31:57;;;;;;;6.80;1.73;;;;;;;;;;4938328;28;20041;-80
2022/11/10 10:34:27;;;;;;;7.85;1.70;;;;;;;;;;4972534;28;20067;-80
2022/11/10 10:36:55;;;;;;;4.70;1.30;;;;;;;;;;4982121;28;20037;-80
2022/11/10 10:39:43;;;;;;;6.32;1.70;;;;;;;;;;4995285;28;20045;-81
2022/11/10 10:42:16;;;;;;;4.38;1.23;;;;;;;;;;4982233;28;20458;-80
2022/11/10 10:45:10;;;;;;;5.93;1.48;;;;;;;;;;4978617;28;20041;-80
2022/11/10 10:47:37;;;;;;;4.53;1.40;;;;;;;;;;4987734;28;20057;-81
2022/11/10 10:50:19;;;;;;;4.57;1.20;;;;;;;;;;4977059;28;20367;-80
2022/11/10 10:52:44;;;;;;;6.15;1.77;;;;;;;;;;4973351;28;20059;-79
2022/11/10 10:55:31;;;;;;;7.72;1.60;;;;;;;;;;4958928;28;20058;-79
2022/11/10 10:57:58;;;;;;;;;;;;;;;;;;4919276;29;20126;-80
2022/11/10 11:00:24;;;;;;;4.65;1.35;;;;;;;;;;4902195;29;20017;-80
2022/11/10 11:03:02;;;;;;;3.90;1.30;;;;;;;;;;4918994;29;20122;-81
2022/11/10 11:05:27;;;;;;;6.10;1.60;;;;;;;;;;4918707;29;20047;-78
2022/11/10 11:08:02;;;;;;;6.60;1.65;;;;;;;;;;4894056;29;20048;-79
2022/11/10 11:10:33;;;;;;;5.72;1.35;;;;;;;;;;4917541;29;20071;-78
2022/11/10 11:13:21;;;;;;;7.55;1.60;;;;;;;;;;4903738;29;20044;-79
2022/11/10 11:16:01;;;;;;;5.15;1.38;;;;;;;;;;4908921;29;20044;-79
2022/11/10 11:18:28;;;;;;;6.00;1.38;;;;;;;;;;4909273;29;20111;-79
2022/11/10 11:21:01;;;;;;;6.28;1.90;;;;;;;;;;4899391;29;20040;-79
2022/11/10 11:23:39;;;;;;;7.30;1.60;;;;;;;;;;4909710;29;20040;-78
2022/11/10 11:26:09;;;;;;;;;;;;;;;;;;4918458;29;20627;-78
2022/11/10 11:28:58;;;;;;;5.20;1.27;;;;;;;;;;4903784;29;19915;-79
2022/11/10 11:31:39;;;;;;;3.65;1.02;;;;;;;;;;4908964;29;20036;-79
2022/11/10 11:34:22;;;;;;;4.72;1.20;;;;;;;;;;4928565;28;21511;-78
2022/11/10 11:37:01;;;;;;;4.47;1.00;;;;;;;;;;4982410;28;20763;-78
2022/11/10 11:39:59;;;;;;;7.75;1.83;;;;;;;;;;4980284;28;20038;-79
2022/11/10 11:42:55;;;;;;;5.00;1.30;;;;;;;;;;4937062;28;20038;-81
2022/11/10 11:45:48;;;;;;;6.22;1.70;;;;;;;;;;4964841;28;20043;-80
2022/11/10 11:48:34;;;;;;;4.57;1.00;;;;;;;;;;4960703;28;20065;-79
2022/11/10 11:51:08;;;;;;;4.38;1.00;;;;;;;;;;4956642;28;20541;-80
2022/11/10 11:54:01;;;;;;;4.35;1.20;;;;;;;;;;4977934;28;20379;-79
2022/11/10 11:56:30;;;;;;;3.55;0.90;;;;;;;;;;4985832;28;20034;-80
2022/11/10 11:59:13;;;;;;;5.82;1.17;;;;;;;;;;4987809;28;20044;-81
2022/11/10 12:02:08;;;;;;;5.47;0.90;;;;;;;;;;4956021;28;20517;-80
2022/11/10 12:04:52;;;;;;;4.63;0.90;;;;;;;;;;4986718;28;20142;-79
2022/11/10 12:07:44;;;;;;;4.15;1.27;;;;;;;;;;4982437;28;20665;-78
2022/11/10 12:10:25;;;;;;;5.90;1.52;;;;;;;;;;4975816;28;20033;-79
2022/11/10 12:13:21;;;;;;;4.20;1.20;;;;;;;;;;4970848;28;20534;-79
2022/11/10 12:15:55;;;;;;;4.45;1.02;;;;;;;;;;4990796;28;20375;-79
2022/11/10 12:18:29;;;;;;;3.90;1.17;;;;;;;;;;4964346;28;20133;-80
2022/11/10 12:21:03;;;;;;;5.93;1.30;;;;;;;;;;4993554;28;20038;-80
2022/11/10 12:23:52;;;;;;;3.50;1.10;;;;;;;;;;4996812;28;20203;-81
2022/11/10 12:27:06;;;;;;;3.92;1.20;;;;;;;;;;4974339;28;20516;-80
2022/11/10 12:29:40;;;;;;;5.32;1.50;;;;;;;;;;4858418;29;20082;-80
2022/11/10 12:32:16;;;;;;;4.03;1.20;;;;;;;;;;4960109;28;20129;-79
2022/11/10 12:34:50;;;;;;;4.90;0.98;;;;;;;;;;4961174;28;20089;-79
2022/11/10 12:37:25;;;;;;;5.35;1.48;;;;;;;;;;4974526;28;20501;-81
2022/11/10 12:39:58;;;;;;;5.57;1.13;;;;;;;;;;4985468;28;20371;-80
2022/11/10 12:42:27;;;;;;;5.53;1.00;;;;;;;;;;4980482;28;20495;-81
2022/11/10 12:45:01;;;;;;;2.78;0.95;;;;;;;;;;4965911;28;20102;-80
2022/11/10 12:47:42;;;;;;;4.20;1.10;;;;;;;;;;4982872;28;20065;-79
2022/11/10 12:50:19;;;;;;;6.18;1.10;;;;;;;;;;4970896;28;20045;-80
2022/11/10 12:52:51;;;;;;;4.95;1.15;;;;;;;;;;4994054;28;20034;-80
2022/11/10 12:55:19;;;;;;;5.90;1.55;;;;;;;;;;4968879;28;20038;-80
2022/11/10 12:57:44;;;;;;;4.10;1.10;;;;;;;;;;4971000;28;20141;-80
2022/11/10 13:00:27;;;;;;;4.65;1.05;;;;;;;;;;4963684;28;20117;-80
2022/11/10 13:02:54;;;;;;;7.80;1.63;;;;;;;;;;4984462;28;20043;-80
2022/11/10 13:05:40;;;;;;;3.47;1.17;;;;;;;;;;4992529;28;20072;-82
2022/11/10 13:08:31;;;;;;;6.95;1.13;;;;;;;;;;4964515;28;20045;-79
2022/11/10 13:11:00;;;;;;;3.88;1.33;;;;;;;;;;4968882;28;20057;-81
2022/11/10 13:13:27;;;;;;;5.32;1.10;;;;;;;;;;4986284;28;20044;-81
2022/11/10 13:15:56;;;;;;;6.72;1.50;;;;;;;;;;4978256;28;20038;-80
2022/11/10 13:18:31;;;;;;;6.13;1.08;;;;;;;;;;4976085;28;20603;-81
2022/11/10 13:20:57;;;;;;;6.75;1.30;;;;;;;;;;4972764;28;20034;-80
2022/11/10 13:23:41;;;;;;;7.63;1.50;;;;;;;;;;4972071;28;20494;-84
2022/11/10 13:26:10;;;;;;;5.97;1.55;;;;;;;;;;4992840;28;20794;-84
2022/11/10 13:28:48;;;;;;;5.03;0.90;;;;;;;;;;4986007;28;20421;-84
2022/11/10 13:31:37;;;;;;;4.13;1.15;;;;;;;;;;4974578;28;20040;-84
2022/11/10 13:34:02;;;;;;;4.47;1.38;;;;;;;;;;4966419;28;20039;-85
2022/11/10 13:36:44;;;;;;;3.85;1.13;;;;;;;;;;4976978;28;20034;-86
2022/11/10 13:39:19;;;;;;;5.35;1.50;;;;;;;;;;4977170;28;20031;-87
2022/11/10 13:41:46;;;;;;;5.13;1.10;;;;;;;;;;4976485;28;20049;-86
2022/11/10 13:44:31;;;;;;;3.50;1.33;;;;;;;;;;4968984;28;21025;-84
2022/11/10 13:47:06;;;;;;;5.70;0.93;;;;;;;;;;4968325;28;20064;-87
2022/11/10 13:49:50;;;;;;;4.15;1.10;;;;;;;;;;4976783;28;20096;-87
2022/11/10 13:52:41;;;;;;;4.70;0.93;;;;;;;;;;4991486;28;20517;-87
2022/11/10 13:55:17;;;;;;;3.60;0.98;;;;;;;;;;4968978;28;20038;-86
2022/11/10 13:58:01;;;;;;;4.70;1.23;;;;;;;;;;4990534;28;20125;-86
2022/11/10 14:00:36;;;;;;;4.63;1.15;;;;;;;;;;4983249;28;20035;-86
2022/11/10 14:03:04;;;;;;;6.57;1.20;;;;;;;;;;4965107;28;20109;-86
2022/11/10 14:05:37;;;;;;;3.65;1.17;;;;;;;;;;4992313;28;20050;-86
2022/11/10 14:08:14;;;;;;;3.50;1.15;;;;;;;;;;4979681;28;20041;-85
2022/11/10 14:11:01;;;;;;;4.90;1.17;;;;;;;;;;4964324;28;20110;-86
2022/11/10 14:13:45;;;;;;;3.38;1.02;;;;;;;;;;4967073;28;20122;-86
2022/11/10 14:16:25;;;;;;;3.75;1.13;;;;;;;;;;4984243;28;20035;-85
2022/11/10 14:18:56;;;;;;;4.18;0.90;;;;;;;;;;4963895;28;20043;-85
2022/11/10 14:21:46;;;;;;;4.50;1.35;;;;;;;;;;4988288;28;20030;-85
2022/11/10 14:24:35;;;;;;;4.85;1.30;;;;;;;;;;4978001;28;20042;-84
2022/11/10 14:27:14;;;;;;;4.43;1.02;;;;;;;;;;4977869;28;20493;-80
2022/11/10 14:29:41;;;;;;;7.38;1.63;;;;;;;;;;4989711;28;20065;-81
2022/11/10 14:32:17;;;;;;;4.22;1.30;;;;;;;;;;4996977;28;20076;-80
2022/11/10 14:34:48;;;;;;;5.38;1.20;;;;;;;;;;4968565;28;20508;-80
2022/11/10 14:37:33;;;;;;;4.88;1.17;;;;;;;;;;4970300;28;20038;-80
2022/11/10 14:40:00;;;;;;;5.13;1.10;;;;;;;;;;4967307;28;20037;-80
2022/11/10 14:42:28;;;;;;;5.03;1.40;;;;;;;;;;4982426;28;20514;-82
2022/11/10 14:45:15;;;;;;;5.43;1.20;;;;;;;;;;4980166;28;20034;-80
2022/11/10 14:47:40;;;;;;;4.32;1.10;;;;;;;;;;4961905;28;20390;-80
2022/11/10 14:50:17;;;;;;;4.75;1.30;;;;;;;;;;4995116;28;20042;-80
2022/11/10 14:52:46;;;;;;;4.63;1.30;;;;;;;;;;4981907;28;20034;-81
2022/11/10 14:55:20;;;;;;;5.53;1.45;;;;;;;;;;4980156;28;20058;-81
2022/11/10 14:58:09;;;;;;;4.30;1.30;;;;;;;;;;4976269;28;20128;-80
2022/11/10 15:00:37;;;;;;;4.88;1.38;;;;;;;;;;4975785;28;20466;-80
2022/11/10 15:03:04;;;;;;;5.03;1.48;;;;;;;;;;4971091;28;20146;-80
2022/11/10 15:05:29;;;;;;;6.03;1.47;;;;;;;;;;4991498;28;20049;-81
2022/11/10 15:07:56;;;;;;;5.15;1.48;;;;;;;;;;4988382;28;20416;-81
2022/11/10 15:10:26;;;;;;;3.95;0.95;;;;;;;;;;4967479;28;20042;-81
2022/11/10 15:13:27;;;;;;;5.15;1.40;;;;;;;;;;4980714;28;20096;-81
2022/11/10 15:16:20;;;;;;;6.60;1.40;;;;;;;;;;4964030;28;20039;-87